sensor_id;sensor_type;location;lat;lon;timestamp;P1;durP1;ratioP1;P2;durP2;ratioP2
31126;SDS011;17775;57.948;12.514;2023-07-22T00:01:51;5.95;;;2.33;;
31126;SDS011;17775;57.948;12.514;2023-07-22T00:04:18;6.53;;;2.53;;
31126;SDS011;17775;57.948;12.514;2023-07-22T00:06:45;6.35;;;1.85;;
31126;SDS011;17775;57.948;12.514;2023-07-22T00:09:12;5.97;;;2.22;;
31126;SDS011;17775;57.948;12.514;2023-07-22T00:11:39;5.57;;;2.38;;
31126;SDS011;17775;57.948;12.514;2023-07-22T00:14:06;8.43;;;2.25;;
31126;SDS011;17775;57.948;12.514;2023-07-22T00:16:32;11.52;;;2.33;;
31126;SDS011;17775;57.948;12.514;2023-07-22T00:18:59;6.05;;;2.28;;
31126;SDS011;17775;57.948;12.514;2023-07-22T00:21:26;9.30;;;3.50;;
31126;SDS011;17775;57.948;12.514;2023-07-22T00:23:52;7.25;;;1.90;;
31126;SDS011;17775;57.948;12.514;2023-07-22T00:26:19;2.97;;;1.65;;
31126;SDS011;17775;57.948;12.514;2023-07-22T00:28:46;5.80;;;2.22;;
31126;SDS011;17775;57.948;12.514;2023-07-22T00:31:12;5.80;;;2.10;;
31126;SDS011;17775;57.948;12.514;2023-07-22T00:33:39;9.80;;;2.55;;
31126;SDS011;17775;57.948;12.514;2023-07-22T00:36:12;6.47;;;2.20;;
31126;SDS011;17775;57.948;12.514;2023-07-22T00:38:39;8.32;;;2.28;;
31126;SDS011;17775;57.948;12.514;2023-07-22T00:41:06;6.07;;;2.53;;
31126;SDS011;17775;57.948;12.514;2023-07-22T00:43:34;5.75;;;1.88;;
31126;SDS011;17775;57.948;12.514;2023-07-22T00:46:02;5.20;;;1.85;;
31126;SDS011;17775;57.948;12.514;2023-07-22T00:48:30;5.00;;;1.80;;
31126;SDS011;17775;57.948;12.514;2023-07-22T00:50:58;8.23;;;2.13;;
31126;SDS011;17775;57.948;12.514;2023-07-22T00:53:25;5.85;;;1.88;;
31126;SDS011;17775;57.948;12.514;2023-07-22T00:55:52;7.55;;;2.20;;
31126;SDS011;17775;57.948;12.514;2023-07-22T00:58:20;4.47;;;1.77;;
31126;SDS011;17775;57.948;12.514;2023-07-22T01:00:47;7.78;;;2.35;;
31126;SDS011;17775;57.948;12.514;2023-07-22T01:03:14;7.07;;;2.17;;
31126;SDS011;17775;57.948;12.514;2023-07-22T01:05:41;8.02;;;1.98;;
31126;SDS011;17775;57.948;12.514;2023-07-22T01:08:13;6.70;;;2.38;;
31126;SDS011;17775;57.948;12.514;2023-07-22T01:10:40;6.93;;;2.08;;
31126;SDS011;17775;57.948;12.514;2023-07-22T01:13:07;6.47;;;2.00;;
31126;SDS011;17775;57.948;12.514;2023-07-22T01:15:34;7.47;;;2.40;;
31126;SDS011;17775;57.948;12.514;2023-07-22T01:18:02;7.95;;;2.03;;
31126;SDS011;17775;57.948;12.514;2023-07-22T01:20:29;6.97;;;2.42;;
31126;SDS011;17775;57.948;12.514;2023-07-22T01:22:56;7.32;;;2.20;;
31126;SDS011;17775;57.948;12.514;2023-07-22T01:25:27;7.60;;;2.92;;
31126;SDS011;17775;57.948;12.514;2023-07-22T01:30:44;5.45;;;2.20;;
31126;SDS011;17775;57.948;12.514;2023-07-22T01:33:11;5.53;;;2.40;;
31126;SDS011;17775;57.948;12.514;2023-07-22T01:35:38;6.32;;;2.20;;
31126;SDS011;17775;57.948;12.514;2023-07-22T01:38:05;7.85;;;2.72;;
31126;SDS011;17775;57.948;12.514;2023-07-22T01:40:34;5.40;;;2.20;;
31126;SDS011;17775;57.948;12.514;2023-07-22T01:43:04;9.87;;;2.20;;
31126;SDS011;17775;57.948;12.514;2023-07-22T01:45:31;7.03;;;2.67;;
31126;SDS011;17775;57.948;12.514;2023-07-22T01:47:58;7.60;;;2.35;;
31126;SDS011;17775;57.948;12.514;2023-07-22T01:50:26;7.45;;;2.40;;
31126;SDS011;17775;57.948;12.514;2023-07-22T01:52:54;6.22;;;2.67;;
31126;SDS011;17775;57.948;12.514;2023-07-22T01:55:21;7.40;;;2.20;;
31126;SDS011;17775;57.948;12.514;2023-07-22T01:57:48;8.63;;;2.55;;
31126;SDS011;17775;57.948;12.514;2023-07-22T02:00:20;3.50;;;1.95;;
31126;SDS011;17775;57.948;12.514;2023-07-22T02:02:48;6.10;;;2.30;;
31126;SDS011;17775;57.948;12.514;2023-07-22T02:05:15;6.43;;;2.65;;
31126;SDS011;17775;57.948;12.514;2023-07-22T02:07:43;5.60;;;2.42;;
31126;SDS011;17775;57.948;12.514;2023-07-22T02:10:09;6.95;;;2.55;;
31126;SDS011;17775;57.948;12.514;2023-07-22T02:12:39;5.38;;;2.15;;
31126;SDS011;17775;57.948;12.514;2023-07-22T02:15:06;6.88;;;2.10;;
31126;SDS011;17775;57.948;12.514;2023-07-22T02:17:33;8.10;;;2.20;;
31126;SDS011;17775;57.948;12.514;2023-07-22T02:20:06;5.70;;;2.58;;
31126;SDS011;17775;57.948;12.514;2023-07-22T02:22:35;5.68;;;2.20;;
31126;SDS011;17775;57.948;12.514;2023-07-22T02:25:02;4.90;;;2.30;;
31126;SDS011;17775;57.948;12.514;2023-07-22T02:27:29;3.95;;;2.22;;
31126;SDS011;17775;57.948;12.514;2023-07-22T02:29:56;5.50;;;2.40;;
31126;SDS011;17775;57.948;12.514;2023-07-22T02:32:24;6.40;;;2.35;;
31126;SDS011;17775;57.948;12.514;2023-07-22T02:34:53;5.97;;;2.30;;
31126;SDS011;17775;57.948;12.514;2023-07-22T02:37:20;6.03;;;2.70;;
31126;SDS011;17775;57.948;12.514;2023-07-22T02:39:47;4.78;;;2.20;;
31126;SDS011;17775;57.948;12.514;2023-07-22T02:42:14;6.95;;;2.20;;
31126;SDS011;17775;57.948;12.514;2023-07-22T02:44:41;9.65;;;2.25;;
31126;SDS011;17775;57.948;12.514;2023-07-22T02:47:08;5.35;;;2.17;;
31126;SDS011;17775;57.948;12.514;2023-07-22T02:49:35;6.47;;;2.50;;
31126;SDS011;17775;57.948;12.514;2023-07-22T02:52:02;6.82;;;2.63;;
31126;SDS011;17775;57.948;12.514;2023-07-22T02:54:29;6.68;;;2.80;;
31126;SDS011;17775;57.948;12.514;2023-07-22T02:56:56;6.97;;;2.45;;
31126;SDS011;17775;57.948;12.514;2023-07-22T02:59:22;7.35;;;2.65;;
31126;SDS011;17775;57.948;12.514;2023-07-22T03:01:49;5.80;;;2.53;;
31126;SDS011;17775;57.948;12.514;2023-07-22T03:04:19;7.13;;;2.20;;
31126;SDS011;17775;57.948;12.514;2023-07-22T03:06:48;5.90;;;2.50;;
31126;SDS011;17775;57.948;12.514;2023-07-22T03:09:15;7.70;;;2.63;;
31126;SDS011;17775;57.948;12.514;2023-07-22T03:11:45;6.50;;;2.45;;
31126;SDS011;17775;57.948;12.514;2023-07-22T03:14:11;4.72;;;2.58;;
31126;SDS011;17775;57.948;12.514;2023-07-22T03:16:38;5.90;;;3.03;;
31126;SDS011;17775;57.948;12.514;2023-07-22T03:19:05;7.15;;;2.38;;
31126;SDS011;17775;57.948;12.514;2023-07-22T03:21:32;6.40;;;2.22;;
31126;SDS011;17775;57.948;12.514;2023-07-22T03:23:58;5.78;;;2.45;;
31126;SDS011;17775;57.948;12.514;2023-07-22T03:26:25;11.25;;;3.78;;
31126;SDS011;17775;57.948;12.514;2023-07-22T03:28:56;5.15;;;2.65;;
31126;SDS011;17775;57.948;12.514;2023-07-22T03:31:23;6.80;;;2.10;;
31126;SDS011;17775;57.948;12.514;2023-07-22T03:33:49;12.10;;;2.70;;
31126;SDS011;17775;57.948;12.514;2023-07-22T03:36:19;7.40;;;2.88;;
31126;SDS011;17775;57.948;12.514;2023-07-22T03:38:48;7.03;;;2.43;;
31126;SDS011;17775;57.948;12.514;2023-07-22T03:41:15;6.00;;;2.55;;
31126;SDS011;17775;57.948;12.514;2023-07-22T03:43:42;5.57;;;2.40;;
31126;SDS011;17775;57.948;12.514;2023-07-22T03:46:10;6.03;;;2.58;;
31126;SDS011;17775;57.948;12.514;2023-07-22T03:48:36;4.65;;;2.35;;
31126;SDS011;17775;57.948;12.514;2023-07-22T03:51:03;5.13;;;2.08;;
31126;SDS011;17775;57.948;12.514;2023-07-22T03:53:45;4.95;;;1.88;;
31126;SDS011;17775;57.948;12.514;2023-07-22T03:56:12;4.05;;;2.15;;
31126;SDS011;17775;57.948;12.514;2023-07-22T03:58:39;4.47;;;1.95;;
31126;SDS011;17775;57.948;12.514;2023-07-22T04:01:06;6.93;;;2.00;;
31126;SDS011;17775;57.948;12.514;2023-07-22T04:03:32;4.10;;;1.83;;
31126;SDS011;17775;57.948;12.514;2023-07-22T04:06:02;6.55;;;2.38;;
31126;SDS011;17775;57.948;12.514;2023-07-22T04:08:28;4.40;;;2.00;;
31126;SDS011;17775;57.948;12.514;2023-07-22T04:10:56;4.38;;;2.33;;
31126;SDS011;17775;57.948;12.514;2023-07-22T04:13:24;4.68;;;2.42;;
31126;SDS011;17775;57.948;12.514;2023-07-22T04:15:51;5.38;;;2.10;;
31126;SDS011;17775;57.948;12.514;2023-07-22T04:18:18;5.95;;;2.13;;
31126;SDS011;17775;57.948;12.514;2023-07-22T04:20:47;4.10;;;1.92;;
31126;SDS011;17775;57.948;12.514;2023-07-22T04:23:14;4.10;;;2.00;;
31126;SDS011;17775;57.948;12.514;2023-07-22T04:25:43;3.45;;;1.65;;
31126;SDS011;17775;57.948;12.514;2023-07-22T04:28:11;5.83;;;2.53;;
31126;SDS011;17775;57.948;12.514;2023-07-22T04:30:38;6.78;;;2.15;;
31126;SDS011;17775;57.948;12.514;2023-07-22T04:33:06;5.47;;;2.22;;
31126;SDS011;17775;57.948;12.514;2023-07-22T04:35:37;4.82;;;2.00;;
31126;SDS011;17775;57.948;12.514;2023-07-22T04:38:04;4.60;;;1.80;;
31126;SDS011;17775;57.948;12.514;2023-07-22T04:40:32;6.40;;;2.10;;
31126;SDS011;17775;57.948;12.514;2023-07-22T04:42:59;7.15;;;2.05;;
31126;SDS011;17775;57.948;12.514;2023-07-22T04:45:26;3.80;;;2.13;;
31126;SDS011;17775;57.948;12.514;2023-07-22T04:47:52;2.95;;;1.70;;
31126;SDS011;17775;57.948;12.514;2023-07-22T04:50:19;4.18;;;1.75;;
31126;SDS011;17775;57.948;12.514;2023-07-22T04:52:48;7.07;;;2.15;;
31126;SDS011;17775;57.948;12.514;2023-07-22T04:55:15;4.20;;;2.03;;
31126;SDS011;17775;57.948;12.514;2023-07-22T04:57:46;4.55;;;1.60;;
31126;SDS011;17775;57.948;12.514;2023-07-22T05:00:14;4.75;;;1.70;;
31126;SDS011;17775;57.948;12.514;2023-07-22T05:02:42;3.75;;;1.45;;
31126;SDS011;17775;57.948;12.514;2023-07-22T05:05:14;5.60;;;1.60;;
31126;SDS011;17775;57.948;12.514;2023-07-22T05:07:41;2.88;;;1.50;;
31126;SDS011;17775;57.948;12.514;2023-07-22T05:10:09;4.55;;;1.65;;
31126;SDS011;17775;57.948;12.514;2023-07-22T05:12:41;2.95;;;1.38;;
31126;SDS011;17775;57.948;12.514;2023-07-22T05:15:12;4.32;;;1.40;;
31126;SDS011;17775;57.948;12.514;2023-07-22T05:20:06;7.05;;;1.33;;
31126;SDS011;17775;57.948;12.514;2023-07-22T05:22:36;3.45;;;1.05;;
31126;SDS011;17775;57.948;12.514;2023-07-22T05:25:04;4.85;;;1.15;;
31126;SDS011;17775;57.948;12.514;2023-07-22T05:27:31;2.45;;;1.00;;
31126;SDS011;17775;57.948;12.514;2023-07-22T05:30:01;2.28;;;0.93;;
31126;SDS011;17775;57.948;12.514;2023-07-22T05:32:28;3.45;;;1.10;;
31126;SDS011;17775;57.948;12.514;2023-07-22T05:34:59;5.82;;;1.13;;
31126;SDS011;17775;57.948;12.514;2023-07-22T05:39:55;4.93;;;0.98;;
31126;SDS011;17775;57.948;12.514;2023-07-22T05:42:37;2.85;;;1.00;;
31126;SDS011;17775;57.948;12.514;2023-07-22T05:45:18;3.40;;;1.10;;
31126;SDS011;17775;57.948;12.514;2023-07-22T05:47:46;5.47;;;1.08;;
31126;SDS011;17775;57.948;12.514;2023-07-22T05:50:30;4.75;;;0.90;;
31126;SDS011;17775;57.948;12.514;2023-07-22T05:53:10;6.95;;;1.80;;
31126;SDS011;17775;57.948;12.514;2023-07-22T05:55:51;8.00;;;2.47;;
31126;SDS011;17775;57.948;12.514;2023-07-22T05:58:38;3.33;;;1.00;;
31126;SDS011;17775;57.948;12.514;2023-07-22T06:01:20;3.05;;;1.08;;
31126;SDS011;17775;57.948;12.514;2023-07-22T06:04:24;3.95;;;1.40;;
31126;SDS011;17775;57.948;12.514;2023-07-22T06:07:14;3.03;;;1.10;;
31126;SDS011;17775;57.948;12.514;2023-07-22T06:09:42;2.67;;;0.73;;
31126;SDS011;17775;57.948;12.514;2023-07-22T06:12:09;3.92;;;1.00;;
31126;SDS011;17775;57.948;12.514;2023-07-22T06:14:36;2.83;;;1.17;;
31126;SDS011;17775;57.948;12.514;2023-07-22T06:17:03;6.25;;;1.83;;
31126;SDS011;17775;57.948;12.514;2023-07-22T06:19:30;3.95;;;1.02;;
31126;SDS011;17775;57.948;12.514;2023-07-22T06:21:57;2.17;;;0.90;;
31126;SDS011;17775;57.948;12.514;2023-07-22T06:24:26;3.25;;;1.15;;
31126;SDS011;17775;57.948;12.514;2023-07-22T06:26:53;3.50;;;1.30;;
31126;SDS011;17775;57.948;12.514;2023-07-22T06:29:20;3.92;;;1.42;;
31126;SDS011;17775;57.948;12.514;2023-07-22T06:31:56;3.30;;;1.48;;
31126;SDS011;17775;57.948;12.514;2023-07-22T06:34:24;1.83;;;0.80;;
31126;SDS011;17775;57.948;12.514;2023-07-22T06:36:51;6.35;;;1.25;;
31126;SDS011;17775;57.948;12.514;2023-07-22T06:39:18;4.13;;;1.40;;
31126;SDS011;17775;57.948;12.514;2023-07-22T06:41:47;4.70;;;1.20;;
31126;SDS011;17775;57.948;12.514;2023-07-22T06:44:16;2.70;;;1.00;;
31126;SDS011;17775;57.948;12.514;2023-07-22T06:46:45;3.08;;;0.90;;
31126;SDS011;17775;57.948;12.514;2023-07-22T06:49:15;4.57;;;0.98;;
31126;SDS011;17775;57.948;12.514;2023-07-22T06:51:42;7.03;;;1.33;;
31126;SDS011;17775;57.948;12.514;2023-07-22T06:54:08;3.15;;;1.00;;
31126;SDS011;17775;57.948;12.514;2023-07-22T06:56:35;3.08;;;1.10;;
31126;SDS011;17775;57.948;12.514;2023-07-22T06:59:02;3.63;;;1.30;;
31126;SDS011;17775;57.948;12.514;2023-07-22T07:01:31;2.85;;;0.80;;
31126;SDS011;17775;57.948;12.514;2023-07-22T07:04:01;4.03;;;1.27;;
31126;SDS011;17775;57.948;12.514;2023-07-22T07:06:33;4.18;;;1.00;;
31126;SDS011;17775;57.948;12.514;2023-07-22T07:09:00;3.03;;;0.85;;
31126;SDS011;17775;57.948;12.514;2023-07-22T07:11:30;2.50;;;0.90;;
31126;SDS011;17775;57.948;12.514;2023-07-22T07:13:58;3.97;;;1.00;;
31126;SDS011;17775;57.948;12.514;2023-07-22T07:16:28;4.90;;;1.13;;
31126;SDS011;17775;57.948;12.514;2023-07-22T07:18:58;3.05;;;1.10;;
31126;SDS011;17775;57.948;12.514;2023-07-22T07:23:59;3.30;;;1.00;;
31126;SDS011;17775;57.948;12.514;2023-07-22T07:26:29;3.50;;;1.10;;
31126;SDS011;17775;57.948;12.514;2023-07-22T07:28:56;2.45;;;1.00;;
31126;SDS011;17775;57.948;12.514;2023-07-22T07:31:27;2.55;;;0.93;;
31126;SDS011;17775;57.948;12.514;2023-07-22T07:33:58;2.08;;;0.77;;
31126;SDS011;17775;57.948;12.514;2023-07-22T07:36:25;7.55;;;1.17;;
31126;SDS011;17775;57.948;12.514;2023-07-22T07:38:52;3.78;;;1.38;;
31126;SDS011;17775;57.948;12.514;2023-07-22T07:41:19;3.75;;;0.88;;
31126;SDS011;17775;57.948;12.514;2023-07-22T07:43:46;3.30;;;0.80;;
31126;SDS011;17775;57.948;12.514;2023-07-22T07:46:17;3.95;;;0.80;;
31126;SDS011;17775;57.948;12.514;2023-07-22T07:48:48;2.15;;;0.63;;
31126;SDS011;17775;57.948;12.514;2023-07-22T07:51:18;2.78;;;0.80;;
31126;SDS011;17775;57.948;12.514;2023-07-22T07:53:45;4.00;;;0.88;;
31126;SDS011;17775;57.948;12.514;2023-07-22T07:56:18;3.60;;;0.90;;
31126;SDS011;17775;57.948;12.514;2023-07-22T07:58:49;3.45;;;1.40;;
31126;SDS011;17775;57.948;12.514;2023-07-22T08:01:16;4.18;;;0.88;;
31126;SDS011;17775;57.948;12.514;2023-07-22T08:03:44;3.13;;;0.98;;
31126;SDS011;17775;57.948;12.514;2023-07-22T08:06:12;0.75;;;0.57;;
31126;SDS011;17775;57.948;12.514;2023-07-22T08:08:41;1.70;;;0.50;;
31126;SDS011;17775;57.948;12.514;2023-07-22T08:11:18;2.67;;;0.65;;
31126;SDS011;17775;57.948;12.514;2023-07-22T08:13:49;3.35;;;0.80;;
31126;SDS011;17775;57.948;12.514;2023-07-22T08:16:17;2.65;;;0.90;;
31126;SDS011;17775;57.948;12.514;2023-07-22T08:18:47;4.65;;;1.02;;
31126;SDS011;17775;57.948;12.514;2023-07-22T08:21:14;3.42;;;0.90;;
31126;SDS011;17775;57.948;12.514;2023-07-22T08:23:43;2.13;;;0.70;;
31126;SDS011;17775;57.948;12.514;2023-07-22T08:26:13;3.00;;;0.77;;
31126;SDS011;17775;57.948;12.514;2023-07-22T08:28:39;2.05;;;0.85;;
31126;SDS011;17775;57.948;12.514;2023-07-22T08:31:06;1.50;;;1.17;;
31126;SDS011;17775;57.948;12.514;2023-07-22T08:33:38;4.03;;;1.05;;
31126;SDS011;17775;57.948;12.514;2023-07-22T08:36:08;1.88;;;0.73;;
31126;SDS011;17775;57.948;12.514;2023-07-22T08:38:37;1.52;;;0.68;;
31126;SDS011;17775;57.948;12.514;2023-07-22T08:41:04;2.88;;;0.88;;
31126;SDS011;17775;57.948;12.514;2023-07-22T08:43:30;2.65;;;0.93;;
31126;SDS011;17775;57.948;12.514;2023-07-22T08:45:59;4.97;;;0.80;;
31126;SDS011;17775;57.948;12.514;2023-07-22T08:48:27;2.78;;;0.70;;
31126;SDS011;17775;57.948;12.514;2023-07-22T08:51:06;1.83;;;0.70;;
31126;SDS011;17775;57.948;12.514;2023-07-22T08:53:33;1.67;;;0.82;;
31126;SDS011;17775;57.948;12.514;2023-07-22T08:56:04;2.90;;;1.00;;
31126;SDS011;17775;57.948;12.514;2023-07-22T08:58:32;0.68;;;0.50;;
31126;SDS011;17775;57.948;12.514;2023-07-22T09:01:00;1.77;;;0.70;;
31126;SDS011;17775;57.948;12.514;2023-07-22T09:03:28;3.65;;;0.85;;
31126;SDS011;17775;57.948;12.514;2023-07-22T09:05:55;1.23;;;0.70;;
31126;SDS011;17775;57.948;12.514;2023-07-22T09:08:23;1.65;;;0.60;;
31126;SDS011;17775;57.948;12.514;2023-07-22T09:10:50;3.00;;;0.70;;
31126;SDS011;17775;57.948;12.514;2023-07-22T09:13:19;6.55;;;0.73;;
31126;SDS011;17775;57.948;12.514;2023-07-22T09:15:47;3.33;;;0.80;;
31126;SDS011;17775;57.948;12.514;2023-07-22T09:18:16;1.63;;;0.60;;
31126;SDS011;17775;57.948;12.514;2023-07-22T09:20:43;2.85;;;0.73;;
31126;SDS011;17775;57.948;12.514;2023-07-22T09:23:11;6.10;;;1.00;;
31126;SDS011;17775;57.948;12.514;2023-07-22T09:25:42;2.80;;;0.98;;
31126;SDS011;17775;57.948;12.514;2023-07-22T09:28:12;2.60;;;0.90;;
31126;SDS011;17775;57.948;12.514;2023-07-22T09:30:39;1.67;;;0.80;;
31126;SDS011;17775;57.948;12.514;2023-07-22T09:33:07;2.95;;;0.77;;
31126;SDS011;17775;57.948;12.514;2023-07-22T09:35:46;3.10;;;0.77;;
31126;SDS011;17775;57.948;12.514;2023-07-22T09:38:13;1.17;;;0.60;;
31126;SDS011;17775;57.948;12.514;2023-07-22T09:40:43;4.75;;;1.13;;
31126;SDS011;17775;57.948;12.514;2023-07-22T09:43:10;1.10;;;0.70;;
31126;SDS011;17775;57.948;12.514;2023-07-22T09:45:41;0.80;;;0.60;;
31126;SDS011;17775;57.948;12.514;2023-07-22T09:48:09;0.98;;;0.50;;
31126;SDS011;17775;57.948;12.514;2023-07-22T09:50:36;2.35;;;0.50;;
31126;SDS011;17775;57.948;12.514;2023-07-22T09:53:04;1.65;;;0.60;;
31126;SDS011;17775;57.948;12.514;2023-07-22T09:55:32;1.30;;;0.57;;
31126;SDS011;17775;57.948;12.514;2023-07-22T09:58:04;2.85;;;0.60;;
31126;SDS011;17775;57.948;12.514;2023-07-22T10:00:42;3.15;;;0.63;;
31126;SDS011;17775;57.948;12.514;2023-07-22T10:03:12;1.45;;;0.60;;
31126;SDS011;17775;57.948;12.514;2023-07-22T10:05:42;2.97;;;0.63;;
31126;SDS011;17775;57.948;12.514;2023-07-22T10:08:10;2.10;;;0.50;;
31126;SDS011;17775;57.948;12.514;2023-07-22T10:10:39;0.60;;;0.40;;
31126;SDS011;17775;57.948;12.514;2023-07-22T10:13:09;2.78;;;0.60;;
31126;SDS011;17775;57.948;12.514;2023-07-22T10:15:39;1.13;;;0.60;;
31126;SDS011;17775;57.948;12.514;2023-07-22T10:18:05;2.38;;;0.63;;
31126;SDS011;17775;57.948;12.514;2023-07-22T10:20:32;1.35;;;0.57;;
31126;SDS011;17775;57.948;12.514;2023-07-22T10:23:03;1.90;;;0.68;;
31126;SDS011;17775;57.948;12.514;2023-07-22T10:25:31;1.10;;;0.60;;
31126;SDS011;17775;57.948;12.514;2023-07-22T10:28:00;2.33;;;0.80;;
31126;SDS011;17775;57.948;12.514;2023-07-22T10:30:27;1.08;;;0.55;;
31126;SDS011;17775;57.948;12.514;2023-07-22T10:32:54;1.67;;;0.47;;
31126;SDS011;17775;57.948;12.514;2023-07-22T10:38:11;2.55;;;0.75;;
31126;SDS011;17775;57.948;12.514;2023-07-22T10:40:49;3.80;;;0.60;;
31126;SDS011;17775;57.948;12.514;2023-07-22T10:43:16;0.82;;;0.50;;
31126;SDS011;17775;57.948;12.514;2023-07-22T10:45:50;0.80;;;0.45;;
31126;SDS011;17775;57.948;12.514;2023-07-22T10:48:18;1.02;;;0.57;;
31126;SDS011;17775;57.948;12.514;2023-07-22T10:50:46;0.98;;;0.40;;
31126;SDS011;17775;57.948;12.514;2023-07-22T10:56:03;2.15;;;0.63;;
31126;SDS011;17775;57.948;12.514;2023-07-22T10:58:33;1.42;;;0.50;;
31126;SDS011;17775;57.948;12.514;2023-07-22T11:01:21;1.67;;;0.50;;
31126;SDS011;17775;57.948;12.514;2023-07-22T11:06:29;1.40;;;0.70;;
31126;SDS011;17775;57.948;12.514;2023-07-22T11:08:56;2.42;;;0.68;;
31126;SDS011;17775;57.948;12.514;2023-07-22T11:11:38;1.92;;;0.60;;
31126;SDS011;17775;57.948;12.514;2023-07-22T11:14:20;1.75;;;0.63;;
31126;SDS011;17775;57.948;12.514;2023-07-22T11:16:47;2.75;;;0.73;;
31126;SDS011;17775;57.948;12.514;2023-07-22T11:19:18;0.50;;;0.40;;
31126;SDS011;17775;57.948;12.514;2023-07-22T11:21:48;2.13;;;0.75;;
31126;SDS011;17775;57.948;12.514;2023-07-22T11:24:15;3.03;;;0.80;;
31126;SDS011;17775;57.948;12.514;2023-07-22T11:26:41;1.00;;;0.50;;
31126;SDS011;17775;57.948;12.514;2023-07-22T11:29:19;1.45;;;0.52;;
31126;SDS011;17775;57.948;12.514;2023-07-22T11:31:47;1.00;;;0.60;;
31126;SDS011;17775;57.948;12.514;2023-07-22T11:34:16;4.07;;;1.00;;
31126;SDS011;17775;57.948;12.514;2023-07-22T11:36:43;1.10;;;0.70;;
31126;SDS011;17775;57.948;12.514;2023-07-22T11:39:11;4.50;;;0.95;;
31126;SDS011;17775;57.948;12.514;2023-07-22T11:41:42;4.43;;;0.73;;
31126;SDS011;17775;57.948;12.514;2023-07-22T11:44:10;1.52;;;0.80;;
31126;SDS011;17775;57.948;12.514;2023-07-22T11:46:49;3.80;;;0.80;;
31126;SDS011;17775;57.948;12.514;2023-07-22T11:51:49;1.42;;;0.70;;
31126;SDS011;17775;57.948;12.514;2023-07-22T11:54:20;1.50;;;0.63;;
31126;SDS011;17775;57.948;12.514;2023-07-22T11:56:47;2.03;;;0.82;;
31126;SDS011;17775;57.948;12.514;2023-07-22T11:59:13;1.55;;;0.60;;
31126;SDS011;17775;57.948;12.514;2023-07-22T12:01:42;2.17;;;0.80;;
31126;SDS011;17775;57.948;12.514;2023-07-22T12:04:12;1.40;;;0.65;;
31126;SDS011;17775;57.948;12.514;2023-07-22T12:06:39;2.05;;;0.70;;
31126;SDS011;17775;57.948;12.514;2023-07-22T12:09:07;2.97;;;0.80;;
31126;SDS011;17775;57.948;12.514;2023-07-22T12:11:33;2.83;;;0.80;;
31126;SDS011;17775;57.948;12.514;2023-07-22T12:14:07;3.33;;;0.80;;
31126;SDS011;17775;57.948;12.514;2023-07-22T12:16:38;3.70;;;0.80;;
31126;SDS011;17775;57.948;12.514;2023-07-22T12:19:08;4.65;;;0.77;;
31126;SDS011;17775;57.948;12.514;2023-07-22T12:21:38;2.72;;;1.10;;
31126;SDS011;17775;57.948;12.514;2023-07-22T12:24:04;2.83;;;1.17;;
31126;SDS011;17775;57.948;12.514;2023-07-22T12:26:31;3.38;;;1.10;;
31126;SDS011;17775;57.948;12.514;2023-07-22T12:28:57;4.57;;;1.33;;
31126;SDS011;17775;57.948;12.514;2023-07-22T12:31:28;5.88;;;1.17;;
31126;SDS011;17775;57.948;12.514;2023-07-22T12:33:55;3.55;;;1.30;;
31126;SDS011;17775;57.948;12.514;2023-07-22T12:36:21;2.35;;;1.25;;
31126;SDS011;17775;57.948;12.514;2023-07-22T12:38:51;3.35;;;1.38;;
31126;SDS011;17775;57.948;12.514;2023-07-22T12:41:18;5.28;;;1.67;;
31126;SDS011;17775;57.948;12.514;2023-07-22T12:43:44;2.70;;;1.02;;
31126;SDS011;17775;57.948;12.514;2023-07-22T12:46:11;1.25;;;0.85;;
31126;SDS011;17775;57.948;12.514;2023-07-22T12:48:37;3.13;;;1.10;;
31126;SDS011;17775;57.948;12.514;2023-07-22T12:51:04;3.42;;;1.20;;
31126;SDS011;17775;57.948;12.514;2023-07-22T12:53:31;2.88;;;0.98;;
31126;SDS011;17775;57.948;12.514;2023-07-22T12:55:58;2.28;;;1.23;;
31126;SDS011;17775;57.948;12.514;2023-07-22T12:58:24;3.83;;;1.10;;
31126;SDS011;17775;57.948;12.514;2023-07-22T13:00:51;3.42;;;1.15;;
31126;SDS011;17775;57.948;12.514;2023-07-22T13:03:17;2.78;;;1.08;;
31126;SDS011;17775;57.948;12.514;2023-07-22T13:05:44;1.92;;;0.90;;
31126;SDS011;17775;57.948;12.514;2023-07-22T13:08:14;3.22;;;0.93;;
31126;SDS011;17775;57.948;12.514;2023-07-22T13:10:41;5.25;;;0.88;;
31126;SDS011;17775;57.948;12.514;2023-07-22T13:13:10;4.10;;;1.10;;
31126;SDS011;17775;57.948;12.514;2023-07-22T13:15:38;4.00;;;1.00;;
31126;SDS011;17775;57.948;12.514;2023-07-22T13:18:05;3.30;;;0.88;;
31126;SDS011;17775;57.948;12.514;2023-07-22T13:20:32;1.52;;;0.75;;
31126;SDS011;17775;57.948;12.514;2023-07-22T13:22:59;5.35;;;1.20;;
31126;SDS011;17775;57.948;12.514;2023-07-22T13:25:25;1.75;;;1.02;;
31126;SDS011;17775;57.948;12.514;2023-07-22T13:27:55;1.05;;;0.80;;
31126;SDS011;17775;57.948;12.514;2023-07-22T13:30:21;2.28;;;0.70;;
31126;SDS011;17775;57.948;12.514;2023-07-22T13:32:48;3.95;;;0.95;;
31126;SDS011;17775;57.948;12.514;2023-07-22T13:35:14;3.05;;;0.93;;
31126;SDS011;17775;57.948;12.514;2023-07-22T13:37:41;2.30;;;0.90;;
31126;SDS011;17775;57.948;12.514;2023-07-22T13:40:08;2.15;;;1.20;;
31126;SDS011;17775;57.948;12.514;2023-07-22T13:42:37;3.03;;;1.27;;
31126;SDS011;17775;57.948;12.514;2023-07-22T13:45:07;6.03;;;1.45;;
31126;SDS011;17775;57.948;12.514;2023-07-22T13:47:34;3.78;;;1.00;;
31126;SDS011;17775;57.948;12.514;2023-07-22T13:50:01;2.50;;;1.23;;
31126;SDS011;17775;57.948;12.514;2023-07-22T13:52:27;2.45;;;1.15;;
31126;SDS011;17775;57.948;12.514;2023-07-22T13:54:54;1.73;;;1.02;;
31126;SDS011;17775;57.948;12.514;2023-07-22T13:57:20;4.90;;;1.55;;
31126;SDS011;17775;57.948;12.514;2023-07-22T13:59:47;3.95;;;1.20;;
31126;SDS011;17775;57.948;12.514;2023-07-22T14:02:13;3.97;;;1.10;;
31126;SDS011;17775;57.948;12.514;2023-07-22T14:04:40;4.35;;;1.20;;
31126;SDS011;17775;57.948;12.514;2023-07-22T14:07:06;3.97;;;1.20;;
31126;SDS011;17775;57.948;12.514;2023-07-22T14:09:33;3.33;;;1.08;;
31126;SDS011;17775;57.948;12.514;2023-07-22T14:11:59;2.83;;;1.05;;
31126;SDS011;17775;57.948;12.514;2023-07-22T14:14:26;2.58;;;1.13;;
31126;SDS011;17775;57.948;12.514;2023-07-22T14:16:55;2.20;;;1.00;;
31126;SDS011;17775;57.948;12.514;2023-07-22T14:19:23;3.30;;;1.00;;
31126;SDS011;17775;57.948;12.514;2023-07-22T14:21:49;2.83;;;0.73;;
31126;SDS011;17775;57.948;12.514;2023-07-22T14:24:16;2.20;;;0.90;;
31126;SDS011;17775;57.948;12.514;2023-07-22T14:26:43;2.58;;;1.20;;
31126;SDS011;17775;57.948;12.514;2023-07-22T14:29:09;3.13;;;1.52;;
31126;SDS011;17775;57.948;12.514;2023-07-22T14:31:35;2.78;;;1.10;;
31126;SDS011;17775;57.948;12.514;2023-07-22T14:34:02;5.18;;;1.42;;
31126;SDS011;17775;57.948;12.514;2023-07-22T14:36:31;1.10;;;0.75;;
31126;SDS011;17775;57.948;12.514;2023-07-22T14:38:57;1.38;;;0.70;;
31126;SDS011;17775;57.948;12.514;2023-07-22T14:41:24;1.92;;;1.10;;
31126;SDS011;17775;57.948;12.514;2023-07-22T14:43:51;3.97;;;1.00;;
31126;SDS011;17775;57.948;12.514;2023-07-22T14:46:18;3.95;;;1.00;;
31126;SDS011;17775;57.948;12.514;2023-07-22T14:48:45;2.95;;;1.10;;
31126;SDS011;17775;57.948;12.514;2023-07-22T14:51:11;4.85;;;1.00;;
31126;SDS011;17775;57.948;12.514;2023-07-22T14:53:38;3.20;;;0.90;;
31126;SDS011;17775;57.948;12.514;2023-07-22T14:56:05;1.30;;;0.73;;
31126;SDS011;17775;57.948;12.514;2023-07-22T14:58:33;4.68;;;1.52;;
31126;SDS011;17775;57.948;12.514;2023-07-22T15:00:59;5.15;;;1.08;;
31126;SDS011;17775;57.948;12.514;2023-07-22T15:03:29;4.00;;;1.50;;